»·PEaware :: N46420 KWHP-KSBA

N46420 :: KWHP-KSBA

FLIGHT INFORMATION

Flight Status: Arrived
Operator: Privately registered:
United States
More flights under this callsign
Pilot: Nickolaus B. (17683)
Aircraft: CESSNA 172 SKYHAWK
(C172)
More flights by this aircraft type
Origin: KWHP Whiteman
United States
Destination: KSBA Santa Barbara Mun
United States
More flights between these airports :: More routes between these airports
Route: +
File this flight plan on PilotEdge
Remarks:
Altitude:
(Current/Filed)
0ft
Speed:
(Current/Filed)
0kts
Departed: 06-Jan-18 09:48 PM
Arrived: 06-Jan-18 10:29 PM
Distance/Time
Traveled:
71nm/0:41
Distance/Time
To Go:
Arrived

Flight Plot

Page will automatically refresh every two minutes.

Flight plan parsing failed; only flown route is shown


Map Options




Map Legend


Flown Route
Filed Route
Departure Airport
Arrival Airport
Navaid (VOR, NDB)
Fix

Horizontal Profiles

Position Reports

Time Latitude Longitude Heading Altitude Ground
Speed
06-Jan-18 21:45 34.263105 -118.416075 138 1002ft 0kts
06-Jan-18 21:46 34.263105 -118.416075 138 1002ft 0kts
06-Jan-18 21:47 34.262967 -118.416075 223 1002ft 0kts
06-Jan-18 21:48 34.262967 -118.416075 223 1002ft 0kts
06-Jan-18 21:49 34.262893 -118.416154 220 1002ft 6kts
06-Jan-18 21:50 34.263685 -118.417475 283 1001ft 0kts
06-Jan-18 21:51 34.263685 -118.417475 283 1001ft 0kts
06-Jan-18 21:52 34.263685 -118.417475 283 1001ft 0kts
06-Jan-18 21:53 34.263689 -118.417527 269 1001ft 5kts
06-Jan-18 21:54 34.252190 -118.405783 160 1354ft 87kts
06-Jan-18 21:55 34.252784 -118.426688 322 2090ft 95kts
06-Jan-18 21:56 34.264244 -118.454667 279 2847ft 94kts
06-Jan-18 21:57 34.267086 -118.481294 282 3835ft 66kts
06-Jan-18 21:58 34.269939 -118.505772 283 4492ft 79kts
06-Jan-18 21:59 34.273171 -118.532342 283 5194ft 80kts
06-Jan-18 22:00 34.276337 -118.558279 284 5891ft 76kts
06-Jan-18 22:01 34.279361 -118.582997 284 6481ft 81kts
06-Jan-18 22:02 34.283645 -118.616252 284 6519ft 112kts
06-Jan-18 22:03 34.288275 -118.653613 283 6519ft 118kts
06-Jan-18 22:04 34.293032 -118.692402 284 6518ft 117kts
06-Jan-18 22:05 34.297808 -118.731689 284 6516ft 119kts
06-Jan-18 22:06 34.302636 -118.771595 285 6514ft 121kts
06-Jan-18 22:07 34.307540 -118.812247 285 6512ft 123kts
06-Jan-18 22:08 34.312372 -118.852413 284 6503ft 125kts
06-Jan-18 22:09 34.317152 -118.892753 285 6724ft 112kts
06-Jan-18 22:10 34.321133 -118.926930 286 7318ft 96kts
06-Jan-18 22:11 34.324685 -118.957202 287 7914ft 87kts
06-Jan-18 22:12 34.327911 -118.984773 287 8484ft 82kts
06-Jan-18 22:13 34.332033 -119.017890 285 8503ft 110kts
06-Jan-18 22:14 34.336523 -119.055380 284 8503ft 113kts
06-Jan-18 22:15 34.340891 -119.092379 284 8504ft 113kts
06-Jan-18 22:16 34.345319 -119.129974 284 8506ft 113kts
06-Jan-18 22:17 34.349836 -119.167052 285 8507ft 113kts
06-Jan-18 22:18 34.354435 -119.204664 284 8508ft 112kts
06-Jan-18 22:19 34.358837 -119.242000 284 8510ft 112kts
06-Jan-18 22:20 34.363022 -119.279372 284 8511ft 112kts
06-Jan-18 22:21 34.367254 -119.316724 284 8508ft 112kts
06-Jan-18 22:22 34.371526 -119.353928 283 8504ft 111kts
06-Jan-18 22:23 34.375747 -119.390759 283 8502ft 110kts
06-Jan-18 22:24 34.379951 -119.427523 282 8505ft 110kts
06-Jan-18 22:25 34.384169 -119.464548 282 8501ft 112kts
06-Jan-18 22:26 34.388846 -119.505319 281 7868ft 136kts
06-Jan-18 22:27 34.394091 -119.551492 281 6863ft 140kts
06-Jan-18 22:28 34.399402 -119.598401 280 5859ft 141kts
06-Jan-18 22:29 34.404708 -119.645403 280 4856ft 141kts
06-Jan-18 22:30 34.409933 -119.691785 279 3861ft 136kts
06-Jan-18 22:31 34.416349 -119.733665 295 2789ft 127kts
06-Jan-18 22:32 34.429493 -119.770820 284 1498ft 114kts
06-Jan-18 22:33 34.428657 -119.800582 267 797ft 63kts
06-Jan-18 22:34 34.428168 -119.821719 267 269ft 63kts
06-Jan-18 22:35 34.427821 -119.838130 265 13ft 17kts
06-Jan-18 22:36 34.426256 -119.838177 157 11ft 14kts

Navigation Log

Ident Type
Flight plan parsing failed, navigation log unavailable